Time;durP1;ratioP1;P1;durP2;ratioP2;P2;SDS_P1;SDS_P2;PMS_P1;PMS_P2;Temp;Humidity;BMP_temperature;BMP_pressure;BME280_temperature;BME280_humidity;BME280_pressure;Samples;Min_cycle;Max_cycle;Signal;HPM_P1;HPM_P2
2023/07/24 00:00:08;;;;;;;14.27;9.70;;;;;;;23.81;61.60;95069.75;5055082;28;20954;-78
2023/07/24 00:02:37;;;;;;;12.03;9.87;;;;;;;23.72;62.38;95071.84;5054665;28;20482;-78
2023/07/24 00:05:04;;;;;;;12.70;10.10;;;;;;;23.74;61.85;95075.94;5054598;28;20455;-78
2023/07/24 00:07:31;;;;;;;11.73;8.83;;;;;;;23.76;61.39;95059.66;5054413;28;20451;-78
2023/07/24 00:09:57;;;;;;;14.43;10.00;;;;;;;23.68;62.21;95067.88;5035828;28;20444;-79
2023/07/24 00:12:24;;;;;;;14.20;9.47;;;;;;;23.71;61.98;95060.28;5035795;28;20451;-78
2023/07/24 00:14:53;;;;;;;11.50;9.10;;;;;;;23.63;62.43;95056.97;5054577;28;20977;-78
2023/07/24 00:17:20;;;;;;;13.10;9.63;;;;;;;23.58;62.47;95062.13;5054631;28;20452;-78
2023/07/24 00:19:50;;;;;;;14.13;10.17;;;;;;;23.54;62.55;95063.53;5054374;28;20576;-78
2023/07/24 00:22:20;;;;;;;14.10;10.20;;;;;;;23.54;62.63;95063.53;5020057;28;20494;-79
2023/07/24 00:24:47;;;;;;;13.60;10.27;;;;;;;23.54;62.46;95059.00;5054402;28;20448;-79
2023/07/24 00:27:14;;;;;;;11.37;9.57;;;;;;;23.49;62.64;95051.59;5054396;28;20443;-78
2023/07/24 00:29:44;;;;;;;16.70;10.47;;;;;;;23.49;62.62;95051.59;5054073;28;20451;-78
2023/07/24 00:32:11;;;;;;;16.63;11.00;;;;;;;23.48;62.70;95060.66;5054435;28;20458;-78
2023/07/24 00:34:38;;;;;;;15.80;11.37;;;;;;;23.47;62.69;95069.72;5054060;28;20783;-78
2023/07/24 00:37:08;;;;;;;16.37;9.80;;;;;;;23.45;62.64;95070.97;5054304;28;20467;-78
2023/07/24 00:39:34;;;;;;;14.50;9.87;;;;;;;23.51;63.41;95063.97;5053742;28;20455;-78
2023/07/24 00:42:02;;;;;;;18.10;10.47;;;;;;;23.57;62.66;95058.63;5053232;28;20815;-78
2023/07/24 00:44:30;;;;;;;15.93;10.10;;;;;;;23.61;62.72;95053.69;5054121;28;20449;-78
2023/07/24 00:46:57;;;;;;;14.60;10.03;;;;;;;23.60;62.09;95057.38;5053884;28;20884;-78
2023/07/24 00:49:26;;;;;;;16.97;11.17;;;;;;;23.49;63.16;95062.31;5054082;28;20454;-78
2023/07/24 00:51:56;;;;;;;17.53;10.37;;;;;;;23.26;65.07;95061.88;5054121;28;20448;-77
2023/07/24 00:54:25;;;;;;;22.40;11.50;;;;;;;23.11;66.01;95063.88;5054318;28;20450;-78
2023/07/24 00:56:52;;;;;;;12.17;9.83;;;;;;;23.08;67.05;95056.25;5053695;28;20962;-78
2023/07/24 00:59:18;;;;;;;14.47;9.60;;;;;;;23.10;66.91;95064.91;5054090;28;20454;-78
2023/07/24 01:01:45;;;;;;;14.80;10.50;;;;;;;23.11;66.87;95058.53;5054044;28;20479;-79
2023/07/24 01:04:14;;;;;;;13.70;10.17;;;;;;;23.07;66.78;95055.44;5053286;28;20490;-79
2023/07/24 01:06:41;;;;;;;15.37;11.07;;;;;;;22.94;66.49;95055.44;5053811;28;20506;-78
2023/07/24 01:09:08;;;;;;;18.50;12.30;;;;;;;22.97;65.81;95054.19;5053949;28;20451;-78
2023/07/24 01:11:42;;;;;;;15.50;11.47;;;;;;;22.91;65.87;95042.44;5053342;28;20442;-79
2023/07/24 01:14:14;;;;;;;17.00;11.70;;;;;;;22.90;66.06;95056.03;5053267;28;20950;-78
2023/07/24 01:16:43;;;;;;;16.27;11.57;;;;;;;22.88;65.73;95053.56;5053316;28;20461;-78
2023/07/24 01:19:16;;;;;;;16.93;11.73;;;;;;;22.97;65.89;95056.88;5053419;28;20504;-79
2023/07/24 01:21:53;;;;;;;17.90;11.50;;;;;;;23.02;65.69;95049.06;5053553;28;20442;-79
2023/07/24 01:24:31;;;;;;;16.13;10.67;;;;;;;23.08;65.45;95054.41;5052956;28;20499;-78
2023/07/24 01:26:59;;;;;;;16.23;11.37;;;;;;;23.17;64.55;95061.25;5053420;28;20545;-78
2023/07/24 01:29:26;;;;;;;17.13;11.40;;;;;;;23.20;64.34;95056.50;5052976;28;20454;-79
2023/07/24 01:31:53;;;;;;;16.87;11.57;;;;;;;23.22;64.14;95057.13;5052871;28;20482;-78
2023/07/24 01:34:19;;;;;;;16.00;11.07;;;;;;;23.24;63.90;95053.22;5053152;28;20449;-78
2023/07/24 01:36:46;;;;;;;20.20;11.60;;;;;;;23.26;63.88;95048.47;5034093;28;20438;-78
2023/07/24 01:39:14;;;;;;;17.80;10.73;;;;;;;23.26;63.72;95045.81;5050628;28;20452;-78
2023/07/24 01:41:41;;;;;;;15.80;10.60;;;;;;;23.20;63.79;95051.16;5053222;28;20442;-78
2023/07/24 01:44:10;;;;;;;13.90;10.63;;;;;;;23.24;63.97;95049.72;5052770;28;20483;-78
2023/07/24 01:46:37;;;;;;;12.80;10.70;;;;;;;23.27;63.69;95052.81;5017310;28;20946;-78
2023/07/24 01:49:04;;;;;;;15.63;11.23;;;;;;;23.36;64.21;95045.38;5053029;28;20447;-78
2023/07/24 01:51:32;;;;;;;15.20;11.13;;;;;;;23.36;64.52;95046.22;5053531;28;20440;-79
2023/07/24 01:53:58;;;;;;;25.53;12.57;;;;;;;23.36;65.03;95056.09;5017382;28;20442;-79
2023/07/24 01:56:25;;;;;;;18.27;11.97;;;;;;;23.27;65.13;95063.53;5033657;28;20439;-78
2023/07/24 01:58:52;;;;;;;13.47;9.77;;;;;;;23.30;65.58;95073.81;5052343;28;20456;-78
2023/07/24 02:01:20;;;;;;;15.10;11.70;;;;;;;23.23;65.27;95077.53;5052633;28;20450;-78
2023/07/24 02:03:47;;;;;;;14.97;11.17;;;;;;;23.13;65.64;95062.69;5052271;28;20484;-78
2023/07/24 02:06:14;;;;;;;19.43;11.23;;;;;;;23.07;65.62;95055.44;5052065;28;20471;-79
2023/07/24 02:08:41;;;;;;;17.30;12.30;;;;;;;23.02;65.58;95060.59;5052477;28;20447;-78
2023/07/24 02:11:08;;;;;;;15.43;10.70;;;;;;;22.98;65.42;95055.84;5052284;28;20489;-78
2023/07/24 02:13:35;;;;;;;16.60;11.50;;;;;;;22.94;65.40;95052.75;5017029;28;20456;-78
2023/07/24 02:16:01;;;;;;;15.77;11.87;;;;;;;22.91;64.97;95058.50;5017246;28;20483;-78
2023/07/24 02:18:29;;;;;;;23.03;11.70;;;;;;;22.91;65.66;95052.34;5052089;28;20451;-78
2023/07/24 02:20:56;;;;;;;15.90;11.27;;;;;;;22.88;65.38;95055.41;5052370;28;20446;-78
2023/07/24 02:23:23;;;;;;;17.63;11.40;;;;;;;22.78;65.69;95037.00;5052313;28;20536;-78
2023/07/24 02:25:52;;;;;;;17.67;11.83;;;;;;;22.75;65.62;95038.25;5051942;28;20447;-78
2023/07/24 02:28:20;;;;;;;16.13;11.37;;;;;;;22.74;65.57;95041.94;5051860;28;20493;-79
2023/07/24 02:30:47;;;;;;;16.43;12.20;;;;;;;22.70;65.87;95040.72;5051769;28;20844;-78
2023/07/24 02:33:14;;;;;;;17.37;11.67;;;;;;;22.64;65.96;95051.41;5052312;28;20458;-78
2023/07/24 02:35:45;;;;;;;15.67;10.77;;;;;;;22.68;65.86;95045.44;5052190;28;20453;-78
2023/07/24 02:38:12;;;;;;;20.17;12.90;;;;;;;22.68;65.98;95037.41;5052020;28;20442;-78
2023/07/24 02:40:42;;;;;;;16.67;11.40;;;;;;;22.66;66.22;95035.97;5052102;28;20450;-78
2023/07/24 02:43:09;;;;;;;19.50;13.27;;;;;;;22.69;66.06;95035.56;5052053;28;20486;-78
2023/07/24 02:45:36;;;;;;;19.43;12.40;;;;;;;22.63;66.12;95034.50;5051663;28;20450;-78
2023/07/24 02:48:08;;;;;;;17.77;12.10;;;;;;;22.60;67.08;95045.63;5051850;28;20449;-78
2023/07/24 02:50:35;;;;;;;19.27;13.47;;;;;;;22.62;65.93;95038.22;5052024;28;20487;-78
2023/07/24 02:53:04;;;;;;;19.00;12.60;;;;;;;22.57;66.85;95046.03;5051816;28;20474;-78
2023/07/24 02:55:31;;;;;;;18.30;12.30;;;;;;;22.56;66.00;95044.38;5051680;28;20443;-78
2023/07/24 02:57:58;;;;;;;21.37;12.70;;;;;;;22.48;66.57;95047.19;5052064;28;20460;-77
2023/07/24 03:00:25;;;;;;;17.60;12.60;;;;;;;22.43;66.90;95052.31;5051564;28;20443;-78
2023/07/24 03:02:52;;;;;;;20.27;12.37;;;;;;;22.39;67.35;95045.72;5016433;28;20488;-78
2023/07/24 03:05:18;;;;;;;17.30;11.60;;;;;;;22.39;67.05;95048.41;5019412;28;20450;-78
2023/07/24 03:07:45;;;;;;;17.43;11.47;;;;;;;22.40;67.43;95044.72;5055732;28;20449;-78
2023/07/24 03:10:13;;;;;;;16.67;12.77;;;;;;;22.41;67.13;95046.34;5055926;28;20442;-78
2023/07/24 03:12:40;;;;;;;19.87;12.00;;;;;;;22.40;66.51;95037.50;5036812;28;20444;-79
2023/07/24 03:15:08;;;;;;;18.90;13.17;;;;;;;22.44;67.35;95036.09;5055627;28;20449;-78
2023/07/24 03:17:35;;;;;;;20.33;13.43;;;;;;;22.41;66.82;95035.66;5055789;28;20891;-78
2023/07/24 03:20:09;;;;;;;20.50;11.93;;;;;;;22.36;67.28;95036.25;5055777;28;20450;-78
2023/07/24 03:22:36;;;;;;;20.57;13.33;;;;;;;22.38;67.52;95026.19;5055569;28;20446;-78
2023/07/24 03:25:03;;;;;;;20.37;11.80;;;;;;;22.41;67.32;95024.97;5055280;28;20484;-78
2023/07/24 03:27:31;;;;;;;19.07;11.80;;;;;;;22.52;67.11;95029.72;5055000;28;20497;-78
2023/07/24 03:29:58;;;;;;;18.50;13.80;;;;;;;22.53;65.91;95029.53;5055258;28;20917;-78
2023/07/24 03:32:24;;;;;;;20.90;14.13;;;;;;;22.63;65.18;95047.91;5055191;28;20451;-78
2023/07/24 03:34:51;;;;;;;20.27;12.80;;;;;;;22.69;65.58;95041.72;5055504;28;20465;-78
2023/07/24 03:37:18;;;;;;;27.27;13.17;;;;;;;22.56;65.67;95036.34;5055503;28;20447;-78
2023/07/24 03:39:45;;;;;;;19.23;12.10;;;;;;;22.41;66.45;95039.16;5055134;28;20449;-79
2023/07/24 03:42:13;;;;;;;19.07;13.10;;;;;;;22.47;66.81;95040.19;5019990;28;20453;-78
2023/07/24 03:44:48;;;;;;;17.53;10.83;;;;;;;22.50;67.84;95048.66;5054046;28;20518;-78
2023/07/24 03:47:15;;;;;;;13.93;10.30;;;;;;;22.56;69.22;95052.41;5037328;28;20440;-79
2023/07/24 03:49:42;;;;;;;20.90;10.43;;;;;;;22.33;71.73;95051.88;5054837;28;20450;-78
2023/07/24 03:52:08;;;;;;;12.90;11.03;;;;;;;22.28;72.21;95054.31;5054857;28;20454;-78
2023/07/24 03:54:35;;;;;;;15.43;11.33;;;;;;;21.95;74.57;95058.41;5054534;28;20446;-78
2023/07/24 03:57:02;;;;;;;16.07;11.47;;;;;;;21.98;74.78;95061.72;5054766;28;20832;-79
2023/07/24 03:59:29;;;;;;;15.30;10.90;;;;;;;21.95;75.19;95060.25;5054703;28;20789;-78
2023/07/24 04:01:57;;;;;;;16.67;11.47;;;;;;;22.00;75.13;95057.00;5054937;28;20477;-78
2023/07/24 04:04:24;;;;;;;18.40;12.03;;;;;;;21.99;74.90;95064.22;5054791;28;20478;-78
2023/07/24 04:06:51;;;;;;;16.40;10.60;;;;;;;21.98;75.02;95061.72;5054551;28;20451;-78
2023/07/24 04:09:18;;;;;;;17.73;10.93;;;;;;;21.96;75.05;95062.72;5054587;28;20866;-78
2023/07/24 04:11:45;;;;;;;13.40;10.67;;;;;;;22.05;75.29;95059.94;5054604;28;20442;-78
2023/07/24 04:14:12;;;;;;;13.20;10.80;;;;;;;22.08;75.72;95063.06;5054522;28;20805;-78
2023/07/24 04:16:38;;;;;;;17.20;11.27;;;;;;;22.38;75.32;95062.81;5053794;28;20449;-78
2023/07/24 04:19:07;;;;;;;18.53;12.23;;;;;;;22.78;72.17;95059.25;5054543;28;20452;-78
2023/07/24 04:21:33;;;;;;;18.73;11.80;;;;;;;23.20;66.93;95069.91;5054278;28;20529;-78
2023/07/24 04:24:00;;;;;;;17.27;12.60;;;;;;;23.51;64.23;95062.09;5054530;28;20484;-78
2023/07/24 04:26:27;;;;;;;15.40;12.10;;;;;;;23.74;62.18;95069.78;5054050;28;20449;-78
2023/07/24 04:28:54;;;;;;;22.17;13.60;;;;;;;23.95;60.85;95074.88;5054091;28;20445;-78
2023/07/24 04:31:20;;;;;;;18.20;13.80;;;;;;;24.09;60.44;95062.28;5053966;28;20854;-79
2023/07/24 04:33:48;;;;;;;18.30;13.33;;;;;;;24.05;60.24;95066.44;5053964;28;20447;-78
2023/07/24 04:36:16;;;;;;;19.10;13.80;;;;;;;24.08;60.59;95069.53;5054102;28;20455;-78
2023/07/24 04:38:43;;;;;;;20.87;15.33;;;;;;;24.09;59.71;95065.81;5054054;28;20448;-78
2023/07/24 04:41:09;;;;;;;20.07;13.33;;;;;;;24.29;59.55;95070.34;5018822;28;20438;-78
2023/07/24 04:43:36;;;;;;;20.23;14.40;;;;;;;24.48;58.65;95061.38;5034979;28;20490;-78
2023/07/24 04:46:03;;;;;;;19.10;13.10;;;;;;;24.65;57.79;95059.06;5053788;28;20835;-78
2023/07/24 04:48:32;;;;;;;22.77;14.90;;;;;;;24.82;57.01;95062.91;5018577;28;20485;-79
2023/07/24 04:50:58;;;;;;;17.13;12.70;;;;;;;25.14;56.21;95065.66;5053760;28;20872;-78
2023/07/24 04:53:27;;;;;;;23.93;13.80;;;;;;;25.53;55.07;95068.09;5053914;28;20464;-79
2023/07/24 04:55:54;;;;;;;21.60;12.97;;;;;;;25.90;54.77;95066.38;5053887;28;20438;-78
2023/07/24 04:58:21;;;;;;;18.00;14.10;;;;;;;26.29;52.79;95063.50;5053519;28;20450;-78
2023/07/24 05:00:47;;;;;;;21.13;13.60;;;;;;;26.61;51.91;95065.06;5053717;28;20452;-78
2023/07/24 05:03:16;;;;;;;21.77;13.70;;;;;;;26.86;51.43;95065.75;5053251;28;20434;-80
2023/07/24 05:05:43;;;;;;;19.87;13.20;;;;;;;27.25;50.30;95070.91;5053615;28;20449;-78
2023/07/24 05:08:10;;;;;;;19.20;12.57;;;;;;;27.46;48.76;95075.75;5034775;28;20442;-78
2023/07/24 05:10:38;;;;;;;22.30;13.47;;;;;;;27.69;49.04;95075.84;5053419;28;20442;-78
2023/07/24 05:13:05;;;;;;;19.77;14.20;;;;;;;28.01;48.98;95078.22;5034564;28;20434;-78
2023/07/24 05:15:32;;;;;;;19.40;13.27;;;;;;;28.11;49.72;95078.50;5053354;28;20450;-79
2023/07/24 05:17:59;;;;;;;22.10;14.30;;;;;;;27.92;49.87;95074.25;5053175;28;20940;-79
2023/07/24 05:20:25;;;;;;;19.10;13.97;;;;;;;27.86;50.91;95076.00;5053187;28;20932;-79
2023/07/24 05:22:55;;;;;;;23.10;14.47;;;;;;;27.84;52.07;95071.91;5053051;28;20840;-78
2023/07/24 05:25:23;;;;;;;19.87;13.17;;;;;;;28.12;51.68;95072.03;5053457;28;20493;-79
2023/07/24 05:27:52;;;;;;;26.07;13.23;;;;;;;28.56;51.67;95077.91;5053268;28;20450;-79
2023/07/24 05:30:18;;;;;;;24.83;13.07;;;;;;;28.54;51.58;95071.91;5052695;28;20979;-78
2023/07/24 05:32:48;;;;;;;25.63;12.10;;;;;;;28.80;50.81;95068.69;5053195;28;20452;-78
2023/07/24 05:35:17;;;;;;;20.73;11.20;;;;;;;29.06;48.89;95070.06;5052883;28;20454;-79
2023/07/24 05:37:43;;;;;;;20.17;11.47;;;;;;;29.29;48.86;95074.56;5052868;28;20450;-78
2023/07/24 05:40:13;;;;;;;19.43;11.07;;;;;;;29.46;48.50;95075.44;5052820;28;20442;-78
2023/07/24 05:42:42;;;;;;;20.53;11.27;;;;;;;29.45;48.62;95071.06;5052618;28;20454;-78
2023/07/24 05:45:11;;;;;;;16.43;10.27;;;;;;;29.30;48.03;95068.09;5052532;28;20488;-77
2023/07/24 05:47:38;;;;;;;13.10;10.10;;;;;;;29.22;47.99;95063.91;5033878;28;20434;-76
2023/07/24 05:50:06;;;;;;;12.87;9.90;;;;;;;29.26;47.96;95059.63;5052576;28;20452;-77
2023/07/24 05:52:33;;;;;;;12.40;9.80;;;;;;;29.48;48.48;95059.78;5052976;28;20441;-77
2023/07/24 05:55:00;;;;;;;11.87;9.70;;;;;;;29.78;47.68;95061.38;5052631;28;20441;-77
2023/07/24 05:57:26;;;;;;;11.40;9.43;;;;;;;30.10;46.40;95048.13;5052389;28;20499;-77
2023/07/24 05:59:53;;;;;;;14.40;10.10;;;;;;;29.94;45.73;95043.50;5052620;28;20445;-77
2023/07/24 06:02:21;;;;;;;14.03;10.27;;;;;;;29.70;47.17;95042.84;5052638;28;20854;-77
2023/07/24 06:04:48;;;;;;;13.00;9.17;;;;;;;30.00;46.20;95042.50;5052941;28;20485;-77
2023/07/24 06:07:16;;;;;;;11.27;8.43;;;;;;;30.20;44.99;95040.97;5052299;28;20442;-77
2023/07/24 06:09:43;;;;;;;10.27;9.27;;;;;;;30.43;45.37;95041.84;5052543;28;20449;-76
2023/07/24 06:12:11;;;;;;;15.67;9.50;;;;;;;30.77;44.63;95029.84;5052360;28;20864;-77
2023/07/24 06:14:38;;;;;;;15.27;9.97;;;;;;;30.86;44.14;95023.97;5033296;28;20437;-76
2023/07/24 06:17:05;;;;;;;11.03;9.93;;;;;;;31.02;43.40;95028.50;5052247;28;20511;-76
2023/07/24 06:19:33;;;;;;;11.40;9.97;;;;;;;31.24;44.40;95032.03;5052139;28;20442;-77
2023/07/24 06:22:00;;;;;;;14.47;11.60;;;;;;;31.38;43.60;95027.00;5016786;28;20433;-77
2023/07/24 06:24:27;;;;;;;15.60;9.77;;;;;;;31.22;43.06;95036.88;5052136;28;20477;-77
2023/07/24 06:26:57;;;;;;;11.40;10.20;;;;;;;30.66;44.50;95030.81;5017235;28;20441;-77
2023/07/24 06:29:24;;;;;;;17.73;9.07;;;;;;;30.80;44.38;95034.75;5051984;28;20936;-78
2023/07/24 06:31:51;;;;;;;15.27;11.20;;;;;;;31.14;42.86;95037.31;5052011;28;20526;-78
2023/07/24 06:34:18;;;;;;;10.93;9.17;;;;;;;31.31;42.67;95031.84;5051804;28;20457;-78
2023/07/24 06:36:47;;;;;;;13.67;10.43;;;;;;;31.59;42.23;95034.28;5052022;28;20994;-77
2023/07/24 06:39:14;;;;;;;17.30;9.80;;;;;;;31.92;41.92;95037.84;5051234;28;20449;-77
2023/07/24 06:41:48;;;;;;;11.20;9.97;;;;;;;32.20;42.60;95036.69;5016640;28;20442;-77
2023/07/24 06:44:15;;;;;;;10.47;9.37;;;;;;;32.39;40.88;95029.78;5033139;28;20488;-77
2023/07/24 06:46:42;;;;;;;11.57;9.40;;;;;;;32.10;40.61;95033.91;5051955;28;20789;-78
2023/07/24 06:49:10;;;;;;;12.80;9.77;;;;;;;32.18;41.28;95030.69;5051813;28;20450;-78
2023/07/24 06:51:37;;;;;;;9.63;8.63;;;;;;;32.38;40.85;95035.44;5051649;28;20450;-78
2023/07/24 06:54:05;;;;;;;12.80;10.00;;;;;;;32.47;39.68;95029.28;5051716;28;20588;-78
2023/07/24 06:56:32;;;;;;;12.20;9.43;;;;;;;32.61;39.65;95030.41;5051589;28;20813;-78
2023/07/24 06:59:03;;;;;;;10.83;8.70;;;;;;;32.43;39.99;95039.03;5016872;28;20496;-77
2023/07/24 07:01:30;;;;;;;14.13;9.37;;;;;;;32.17;39.64;95034.50;5051640;28;20445;-77
2023/07/24 07:03:58;;;;;;;14.80;8.43;;;;;;;32.14;40.80;95035.84;5051768;28;20477;-77
2023/07/24 07:06:24;;;;;;;10.30;8.70;;;;;;;32.20;40.88;95039.41;5052084;28;20460;-77
2023/07/24 07:08:51;;;;;;;14.20;10.10;;;;;;;31.83;41.11;95040.22;5051890;28;20449;-78
2023/07/24 07:11:19;;;;;;;13.87;9.30;;;;;;;31.68;41.72;95040.03;5051695;28;20500;-77
2023/07/24 07:13:46;;;;;;;11.67;9.90;;;;;;;31.49;42.10;95039.59;5051622;28;20453;-78
2023/07/24 07:16:16;;;;;;;19.30;9.83;;;;;;;31.68;43.03;95037.31;5016619;28;20476;-77
2023/07/24 07:18:43;;;;;;;21.70;12.30;;;;;;;31.71;42.67;95042.28;5051588;28;20441;-77
2023/07/24 07:21:11;;;;;;;13.53;11.97;;;;;;;31.82;41.36;95044.00;5051626;28;20500;-78
2023/07/24 07:23:38;;;;;;;14.27;11.13;;;;;;;31.80;41.52;95029.84;5051581;28;20446;-77
2023/07/24 07:26:05;;;;;;;14.60;10.80;;;;;;;32.10;40.24;95029.28;5051478;28;20833;-78
2023/07/24 07:28:33;;;;;;;13.70;9.50;;;;;;;32.33;39.65;95030.81;5051710;28;20460;-78
2023/07/24 07:31:00;;;;;;;13.23;10.30;;;;;;;32.47;39.97;95034.72;5051175;28;20485;-77
2023/07/24 07:33:27;;;;;;;12.53;9.73;;;;;;;32.64;39.93;95031.78;5032759;28;20450;-77
2023/07/24 07:35:54;;;;;;;16.10;10.07;;;;;;;32.78;38.68;95029.44;5016530;28;20462;-77
2023/07/24 07:38:22;;;;;;;20.00;9.43;;;;;;;32.32;39.34;95021.03;5051393;28;20438;-78
2023/07/24 07:40:49;;;;;;;13.77;9.60;;;;;;;32.38;39.47;95019.97;5051530;28;20456;-77
2023/07/24 07:43:16;;;;;;;18.10;10.77;;;;;;;32.28;39.29;95028.06;5051232;28;20438;-77
2023/07/24 07:45:44;;;;;;;10.43;9.13;;;;;;;32.37;39.76;95021.03;5032402;28;20999;-78
2023/07/24 07:48:10;;;;;;;11.07;9.70;;;;;;;32.43;39.20;95016.47;5051544;28;20461;-78
2023/07/24 07:50:37;;;;;;;13.83;9.87;;;;;;;32.35;39.00;95020.50;5051445;28;20449;-77
2023/07/24 07:53:04;;;;;;;13.93;9.70;;;;;;;32.57;39.14;95017.63;5055105;28;20445;-78
2023/07/24 07:55:31;;;;;;;14.23;10.00;;;;;;;32.69;38.11;95020.16;5054937;28;20532;-77
2023/07/24 07:57:58;;;;;;;14.00;9.33;;;;;;;33.00;38.35;95021.13;5054688;28;20460;-77
2023/07/24 08:00:24;;;;;;;13.83;10.10;;;;;;;33.37;38.11;95024.50;5035845;28;20436;-78
2023/07/24 08:02:52;;;;;;;12.03;10.40;;;;;;;33.60;37.95;95031.34;5054651;28;20456;-77
2023/07/24 08:05:19;;;;;;;13.70;9.60;;;;;;;33.05;37.83;95023.84;5054897;28;20485;-77
2023/07/24 08:07:46;;;;;;;20.67;10.87;;;;;;;32.97;38.29;95022.47;5054838;28;20714;-77
2023/07/24 08:10:14;;;;;;;13.33;10.03;;;;;;;32.98;38.21;95009.69;5054806;28;20445;-77
2023/07/24 08:12:41;;;;;;;12.97;9.60;;;;;;;32.99;38.60;95012.13;5054845;28;20453;-77
2023/07/24 08:15:10;;;;;;;19.63;10.83;;;;;;;32.41;38.60;95013.22;5054706;28;20442;-77
2023/07/24 08:17:36;;;;;;;12.43;9.20;;;;;;;32.61;39.16;95010.56;4987221;28;20845;-77
2023/07/24 08:20:06;;;;;;;17.13;10.80;;;;;;;32.62;40.35;95014.94;5054791;28;20465;-77
2023/07/24 08:22:33;;;;;;;17.63;9.80;;;;;;;32.28;38.98;95006.34;5054709;28;20516;-76
2023/07/24 08:24:59;;;;;;;18.43;10.37;;;;;;;32.37;39.31;95002.03;5054146;28;20493;-77
2023/07/24 08:27:26;;;;;;;16.13;10.13;;;;;;;32.29;38.98;95006.06;5054149;28;20450;-77
2023/07/24 08:29:53;;;;;;;11.90;10.70;;;;;;;32.38;38.50;95003.66;5054215;28;20442;-77
2023/07/24 08:32:20;;;;;;;17.63;10.70;;;;;;;32.53;37.29;94998.31;5054494;28;20450;-77
2023/07/24 08:34:47;;;;;;;13.10;10.07;;;;;;;32.69;37.03;94992.97;5054530;28;20830;-78
2023/07/24 08:37:15;;;;;;;19.07;11.87;;;;;;;32.65;38.02;94985.31;5054605;28;20454;-77
2023/07/24 08:39:42;;;;;;;14.70;10.70;;;;;;;32.22;37.29;94988.34;5054239;28;20446;-77
2023/07/24 08:42:10;;;;;;;13.40;10.50;;;;;;;32.04;39.06;94982.25;5053771;28;20442;-77
2023/07/24 08:44:37;;;;;;;18.97;11.33;;;;;;;31.97;37.52;94978.97;5053994;28;20446;-77
2023/07/24 08:47:05;;;;;;;16.03;9.43;;;;;;;31.90;38.20;94975.66;5053834;28;20445;-77
2023/07/24 08:49:34;;;;;;;16.63;10.77;;;;;;;31.36;36.90;94975.75;5053519;28;20453;-78
2023/07/24 08:52:04;;;;;;;21.70;11.50;;;;;;;31.26;37.54;94967.53;5018188;28;20441;-77
2023/07/24 08:54:36;;;;;;;16.53;11.57;;;;;;;31.43;37.75;94975.53;5034550;28;20430;-77
2023/07/24 08:57:03;;;;;;;19.07;12.30;;;;;;;31.61;38.52;94977.03;5053522;28;20894;-77
2023/07/24 08:59:30;;;;;;;19.17;13.10;;;;;;;31.69;38.80;94974.66;5053470;28;20446;-77
2023/07/24 09:01:57;;;;;;;16.80;11.90;;;;;;;31.91;39.16;94976.47;5053280;28;20485;-77
2023/07/24 09:04:25;;;;;;;15.90;12.77;;;;;;;31.97;37.44;94973.53;5053555;28;20445;-77
2023/07/24 09:06:52;;;;;;;17.40;12.00;;;;;;;32.20;37.06;94969.59;5017967;28;21008;-77
2023/07/24 09:09:19;;;;;;;24.23;13.43;;;;;;;32.24;36.51;94973.41;5053299;28;20944;-77
2023/07/24 09:11:52;;;;;;;19.97;12.90;;;;;;;32.20;36.37;94968.78;5053191;28;20437;-78
2023/07/24 09:14:23;;;;;;;17.00;11.57;;;;;;;32.07;36.54;94964.63;5053168;28;20457;-77
2023/07/24 09:16:52;;;;;;;19.00;11.17;;;;;;;31.97;35.30;94970.81;5053384;28;20641;-78
2023/07/24 09:19:20;;;;;;;15.63;12.43;;;;;;;32.10;36.17;94969.56;5053038;28;20450;-77
2023/07/24 09:21:49;;;;;;;21.57;12.90;;;;;;;32.22;35.30;94966.63;5053069;28;20445;-77
2023/07/24 09:24:16;;;;;;;17.80;11.83;;;;;;;32.36;35.11;94965.09;5053003;28;20445;-78
2023/07/24 09:26:52;;;;;;;20.90;13.80;;;;;;;32.54;34.80;94950.22;5053358;28;20477;-77
2023/07/24 09:29:20;;;;;;;19.17;11.90;;;;;;;32.74;35.08;94957.66;5053304;28;20449;-78
2023/07/24 09:31:47;;;;;;;20.50;13.90;;;;;;;32.82;35.24;94951.72;5017603;28;20482;-77
2023/07/24 09:34:18;;;;;;;16.70;12.77;;;;;;;32.81;33.77;94947.38;5017815;28;20441;-78
2023/07/24 09:36:45;;;;;;;14.80;11.90;;;;;;;32.87;34.52;94940.84;5053197;28;20531;-77
2023/07/24 09:39:12;;;;;;;47.20;15.17;;;;;;;32.80;33.96;94932.16;5017630;28;20445;-78
2023/07/24 09:41:40;;;;;;;20.00;13.10;;;;;;;32.99;34.78;94933.28;5052735;28;20856;-77
2023/07/24 09:44:08;;;;;;;16.47;11.70;;;;;;;32.76;35.82;94931.03;5052762;28;20525;-77
2023/07/24 09:46:35;;;;;;;15.87;12.77;;;;;;;32.74;36.25;94922.31;5017450;28;20497;-77
2023/07/24 09:49:02;;;;;;;18.87;13.40;;;;;;;32.70;35.11;94919.31;5052561;28;20476;-77
2023/07/24 09:51:32;;;;;;;23.80;13.67;;;;;;;32.76;34.97;94907.38;5052371;28;20499;-77
2023/07/24 09:54:06;;;;;;;18.07;11.97;;;;;;;32.87;35.96;94913.66;5052311;28;20477;-77
2023/07/24 09:56:34;;;;;;;16.93;12.53;;;;;;;32.72;34.91;94908.19;5052452;28;20792;-78
2023/07/24 09:59:03;;;;;;;14.73;12.00;;;;;;;32.74;35.29;94897.84;5052302;28;20491;-78
2023/07/24 10:01:32;;;;;;;16.03;12.87;;;;;;;32.45;35.08;94898.31;5052588;28;20456;-77
2023/07/24 10:04:00;;;;;;;23.73;12.30;;;;;;;32.32;35.61;94899.59;5052063;28;20442;-77
2023/07/24 10:06:29;;;;;;;18.20;12.37;;;;;;;32.52;36.36;94888.00;5016995;28;20570;-77
2023/07/24 10:08:57;;;;;;;16.10;12.40;;;;;;;32.59;38.08;94901.34;5052669;28;20563;-77
2023/07/24 10:11:25;;;;;;;22.67;12.60;;;;;;;32.54;36.06;94899.41;5033308;28;20464;-78
2023/07/24 10:13:53;;;;;;;17.37;12.50;;;;;;;32.51;36.15;94889.09;5051382;28;20452;-78
2023/07/24 10:16:20;;;;;;;16.10;11.90;;;;;;;32.61;37.12;94885.56;5051971;28;20445;-78
2023/07/24 10:18:48;;;;;;;18.03;11.40;;;;;;;32.65;36.43;94884.75;5052454;28;20445;-77
2023/07/24 10:21:15;;;;;;;20.97;12.07;;;;;;;32.69;35.04;94884.25;5052163;28;20450;-78
2023/07/24 10:23:44;;;;;;;23.50;12.77;;;;;;;32.50;35.30;94876.59;5014125;28;20445;-79
2023/07/24 10:26:11;;;;;;;16.33;11.47;;;;;;;32.47;36.78;94868.97;5032922;28;20524;-77
2023/07/24 10:28:40;;;;;;;16.30;11.83;;;;;;;32.59;36.46;94871.44;5051840;28;20531;-78
2023/07/24 10:31:10;;;;;;;17.23;12.00;;;;;;;32.64;35.74;94868.72;5051773;28;20473;-77
2023/07/24 10:33:38;;;;;;;19.60;13.17;;;;;;;32.74;35.02;94862.53;5052187;28;20838;-77
2023/07/24 10:36:10;;;;;;;18.73;13.00;;;;;;;32.88;35.15;94871.81;5051753;28;20446;-78
2023/07/24 10:38:39;;;;;;;15.20;10.63;;;;;;;33.00;36.32;94857.97;5051627;28;20450;-77
2023/07/24 10:41:08;;;;;;;19.73;11.93;;;;;;;32.60;35.68;94860.31;5051500;28;20446;-77
2023/07/24 10:43:42;;;;;;;21.53;12.20;;;;;;;32.48;34.97;94858.91;5032908;28;20438;-77
2023/07/24 10:46:09;;;;;;;17.27;12.70;;;;;;;32.42;35.85;94849.94;5051529;28;20488;-77
2023/07/24 10:48:36;;;;;;;24.83;11.57;;;;;;;32.51;36.61;94848.34;5051669;28;20481;-78
2023/07/24 10:51:09;;;;;;;18.97;13.07;;;;;;;32.41;35.70;94853.75;5051559;28;20974;-77
2023/07/24 10:53:37;;;;;;;26.50;12.37;;;;;;;32.66;37.39;94847.53;5051739;28;20446;-77
2023/07/24 10:56:05;;;;;;;18.10;11.50;;;;;;;32.51;36.45;94844.81;5051965;28;20528;-77
2023/07/24 10:58:33;;;;;;;16.03;11.00;;;;;;;32.62;35.96;94844.53;5051586;28;20442;-78
2023/07/24 11:01:00;;;;;;;20.60;11.97;;;;;;;32.52;35.96;94830.13;5016590;28;20533;-78
2023/07/24 11:03:28;;;;;;;16.60;11.43;;;;;;;32.49;35.75;94830.66;5051409;28;20433;-77
2023/07/24 11:05:55;;;;;;;19.83;12.40;;;;;;;32.41;37.00;94823.88;4984162;28;20496;-78
2023/07/24 11:08:23;;;;;;;18.23;12.30;;;;;;;32.49;35.57;94826.06;5051632;28;20534;-77
2023/07/24 11:10:51;;;;;;;16.60;11.77;;;;;;;32.70;37.21;94817.94;5051502;28;20453;-77
2023/07/24 11:13:21;;;;;;;19.77;11.80;;;;;;;32.76;35.33;94808.69;5051972;28;20515;-77
2023/07/24 11:15:49;;;;;;;17.27;10.90;;;;;;;32.90;36.87;94820.69;5051550;28;20918;-78
2023/07/24 11:18:16;;;;;;;20.03;12.80;;;;;;;32.99;35.69;94801.94;5051414;28;20885;-77
2023/07/24 11:20:46;;;;;;;13.63;11.17;;;;;;;33.14;37.15;94805.47;5051292;28;20465;-77